Time;durP1;ratioP1;P1;durP2;ratioP2;P2;SDS_P1;SDS_P2;PMS_P1;PMS_P2;Temp;Humidity;BMP_temperature;BMP_pressure;BME280_temperature;BME280_humidity;BME280_pressure;Samples;Min_cycle;Max_cycle;Signal;HPM_P1;HPM_P2
2023/06/05 00:01:56;;;;;;;;;;;;;;;;;;137030;1272;22595;-79
2023/06/05 00:04:57;;;;;;;;;;;;;;;;;;137595;1272;22634;-79
2023/06/05 00:07:58;;;;;;;;;;;;;;;;;;137331;1272;22490;-79
2023/06/05 00:10:59;;;;;;;;;;;;;;;;;;137669;1272;22326;-79
2023/06/05 00:14:00;;;;;;;;;;;;;;;;;;137457;1272;22485;-79
2023/06/05 00:17:01;;;;;;;;;;;;;;;;;;137600;1272;22572;-79
2023/06/05 00:20:03;;;;;;;;;;;;;;;;;;137726;1272;22555;-79
2023/06/05 00:23:04;;;;;;;;;;;;;;;;;;137437;1272;22533;-82
2023/06/05 00:26:05;;;;;;;;;;;;;;;;;;137509;1272;22563;-80
2023/06/05 00:29:06;;;;;;;;;;;;;;;;;;137772;1272;22269;-80
2023/06/05 00:32:07;;;;;;;;;;;;;;;;;;137671;1272;22942;-80
2023/06/05 00:35:08;;;;;;;;;;;;;;;;;;137683;1272;22415;-81
2023/06/05 00:38:09;;;;;;;;;;;;;;;;;;137745;1272;22432;-80
2023/06/05 00:41:10;;;;;;;;;;;;;;;;;;137665;1272;22531;-81
2023/06/05 00:44:11;;;;;;;;;;;;;;;;;;137650;1272;22509;-81
2023/06/05 00:47:12;;;;;;;;;;;;;;;;;;137623;1272;22546;-80
2023/06/05 00:50:14;;;;;;;;;;;;;;;;;;137670;1272;22499;-79
2023/06/05 00:53:15;;;;;;;;;;;;;;;;;;137599;1271;22529;-81
2023/06/05 00:56:16;;;;;;;;;;;;;;;;;;137678;1272;22490;-81
2023/06/05 00:59:18;;;;;;;;;;;;;;;;;;137582;1272;22997;-80
2023/06/05 01:02:19;;;;;;;;;;;;;;;;;;137636;1267;22493;-81
2023/06/05 01:05:23;;;;;;;;;;;;;;;;;;137668;1272;22502;-81
2023/06/05 01:08:25;;;;;;;;;;;;;;;;;;137623;1271;22517;-80
2023/06/05 01:11:26;;;;;;;;;;;;;;;;;;137441;1272;22494;-85
2023/06/05 01:14:27;;;;;;;;;;;;;;;;;;137612;1272;22679;-80
2023/06/05 01:17:28;;;;;;;;;;;;;;;;;;137568;1272;22509;-80
2023/06/05 01:20:29;;;;;;;;;;;;;;;;;;137549;1272;22561;-80
2023/06/05 01:23:30;;;;;;;;;;;;;;;;;;137507;1272;22502;-80
2023/06/05 01:26:34;;;;;;;;;;;;;;;;;;137518;1272;22542;-79
2023/06/05 01:29:36;;;;;;;;;;;;;;;;;;137677;1272;22582;-80
2023/06/05 01:32:37;;;;;;;;;;;;;;;;;;137566;1272;22526;-80
2023/06/05 01:35:39;;;;;;;;;;;;;;;;;;137672;1272;22996;-80
2023/06/05 01:38:40;;;;;;;;;;;;;;;;;;137660;1272;22520;-80
2023/06/05 01:41:42;;;;;;;;;;;;;;;;;;137628;1272;22529;-80
2023/06/05 01:44:43;;;;;;;;;;;;;;;;;;137683;1268;22489;-80
2023/06/05 01:47:45;;;;;;;;;;;;;;;;;;137637;1272;22502;-81
2023/06/05 01:50:46;;;;;;;;;;;;;;;;;;137559;1272;22542;-80
2023/06/05 01:53:48;;;;;;;;;;;;;;;;;;137548;1272;22540;-80
2023/06/05 01:56:50;;;;;;;;;;;;;;;;;;137540;1272;22520;-79
2023/06/05 01:59:51;;;;;;;;;;;;;;;;;;137555;1272;22556;-78
2023/06/05 02:02:53;;;;;;;;;;;;;;;;;;137595;1272;22588;-78
2023/06/05 02:05:54;;;;;;;;;;;;;;;;;;137665;1272;22502;-81
2023/06/05 02:08:55;;;;;;;;;;;;;;;;;;137582;1272;23024;-81
2023/06/05 02:11:56;;;;;;;;;;;;;;;;;;137612;1272;22509;-80
2023/06/05 02:14:57;;;;;;;;;;;;;;;;;;137741;1272;22363;-80
2023/06/05 02:17:58;;;;;;;;;;;;;;;;;;137580;1272;22517;-81
2023/06/05 02:20:59;;;;;;;;;;;;;;;;;;137572;1272;22496;-79
2023/06/05 02:24:00;;;;;;;;;;;;;;;;;;137660;1272;22475;-81
2023/06/05 02:27:01;;;;;;;;;;;;;;;;;;137606;1271;22559;-80
2023/06/05 02:30:02;;;;;;;;;;;;;;;;;;137628;1272;22503;-80
2023/06/05 02:33:04;;;;;;;;;;;;;;;;;;137661;1272;22946;-79
2023/06/05 02:36:05;;;;;;;;;;;;;;;;;;137686;1272;22501;-79
2023/06/05 02:39:06;;;;;;;;;;;;;;;;;;137432;1272;22526;-80
2023/06/05 02:42:09;;;;;;;;;;;;;;;;;;137629;1272;22496;-80
2023/06/05 02:45:10;;;;;;;;;;;;;;;;;;137705;1272;22322;-80
2023/06/05 02:48:11;;;;;;;;;;;;;;;;;;137689;1272;22540;-80
2023/06/05 02:51:12;;;;;;;;;;;;;;;;;;137520;1272;22505;-80
2023/06/05 02:54:13;;;;;;;;;;;;;;;;;;137570;1272;22556;-80
2023/06/05 02:57:15;;;;;;;;;;;;;;;;;;137728;1272;22316;-79
2023/06/05 03:00:16;;;;;;;;;;;;;;;;;;137650;1268;22784;-79
2023/06/05 03:03:17;;;;;;;;;;;;;;;;;;137638;1272;22498;-80
2023/06/05 03:06:18;;;;;;;;;;;;;;;;;;137624;1272;22494;-80
2023/06/05 03:09:19;;;;;;;;;;;;;;;;;;137575;1272;22538;-80
2023/06/05 03:12:20;;;;;;;;;;;;;;;;;;137633;1272;22534;-80
2023/06/05 03:15:23;;;;;;;;;;;;;;;;;;137530;1272;22519;-84
2023/06/05 03:18:25;;;;;;;;;;;;;;;;;;137586;1272;23221;-82
2023/06/05 03:21:26;;;;;;;;;;;;;;;;;;137321;1272;22858;-79
2023/06/05 03:24:27;;;;;;;;;;;;;;;;;;137408;1265;22498;-80
2023/06/05 03:27:30;;;;;;;;;;;;;;;;;;137569;1272;22490;-79
2023/06/05 03:30:32;;;;;;;;;;;;;;;;;;137591;1272;22517;-79
2023/06/05 03:33:33;;;;;;;;;;;;;;;;;;137671;1272;22299;-80
2023/06/05 03:36:34;;;;;;;;;;;;;;;;;;137668;1272;22273;-79
2023/06/05 03:39:35;;;;;;;;;;;;;;;;;;137628;1272;22269;-80
2023/06/05 03:42:36;;;;;;;;;;;;;;;;;;137621;1272;22342;-80
2023/06/05 03:45:38;;;;;;;;;;;;;;;;;;137602;1272;22860;-80
2023/06/05 03:48:39;;;;;;;;;;;;;;;;;;137603;1272;22352;-80
2023/06/05 03:51:44;;;;;;;;;;;;;;;;;;137659;1272;22316;-80
2023/06/05 03:54:46;;;;;;;;;;;;;;;;;;137628;1272;22367;-79
2023/06/05 03:57:48;;;;;;;;;;;;;;;;;;137652;1269;22313;-80
2023/06/05 04:00:49;;;;;;;;;;;;;;;;;;137609;1272;22734;-79
2023/06/05 04:03:50;;;;;;;;;;;;;;;;;;137656;1272;22351;-80
2023/06/05 04:06:51;;;;;;;;;;;;;;;;;;137643;1272;22911;-80
2023/06/05 04:09:52;;;;;;;;;;;;;;;;;;137568;1272;22896;-81
2023/06/05 04:12:54;;;;;;;;;;;;;;;;;;137611;1272;22563;-81
2023/06/05 04:15:55;;;;;;;;;;;;;;;;;;137653;1272;22503;-80
2023/06/05 04:18:56;;;;;;;;;;;;;;;;;;137628;1272;22512;-80
2023/06/05 04:21:57;;;;;;;;;;;;;;;;;;137584;1272;22529;-80
2023/06/05 04:24:58;;;;;;;;;;;;;;;;;;137580;1272;22542;-80
2023/06/05 04:27:59;;;;;;;;;;;;;;;;;;137562;1271;22542;-80
2023/06/05 04:31:01;;;;;;;;;;;;;;;;;;137649;1272;22331;-81
2023/06/05 04:34:05;;;;;;;;;;;;;;;;;;137589;1272;22493;-80
2023/06/05 04:37:06;;;;;;;;;;;;;;;;;;137589;1272;22510;-81
2023/06/05 04:40:09;;;;;;;;;;;;;;;;;;137679;1272;22357;-81
2023/06/05 04:43:10;;;;;;;;;;;;;;;;;;137662;1272;22400;-81
2023/06/05 04:46:11;;;;;;;;;;;;;;;;;;137643;1272;22868;-81
2023/06/05 04:49:12;;;;;;;;;;;;;;;;;;137605;1272;22289;-80
2023/06/05 04:52:14;;;;;;;;;;;;;;;;;;137589;1269;22363;-79
2023/06/05 04:55:15;;;;;;;;;;;;;;;;;;137614;1266;22359;-80
2023/06/05 04:58:19;;;;;;;;;;;;;;;;;;137646;1272;22313;-80
2023/06/05 05:01:20;;;;;;;;;;;;;;;;;;137624;1272;23044;-80
2023/06/05 05:04:21;;;;;;;;;;;;;;;;;;137594;1272;22340;-78
2023/06/05 05:07:26;;;;;;;;;;;;;;;;;;137605;1272;22393;-81
2023/06/05 05:10:27;;;;;;;;;;;;;;;;;;137650;1272;22795;-77
2023/06/05 05:13:28;;;;;;;;;;;;;;;;;;137549;1272;22370;-78
2023/06/05 05:16:30;;;;;;;;;;;;;;;;;;137517;1272;22536;-79
2023/06/05 05:19:31;;;;;;;;;;;;;;;;;;137664;1272;22494;-78
2023/06/05 05:22:32;;;;;;;;;;;;;;;;;;137636;1272;22341;-77
2023/06/05 05:25:33;;;;;;;;;;;;;;;;;;137613;1272;22335;-77
2023/06/05 05:28:34;;;;;;;;;;;;;;;;;;137577;1272;22368;-79
2023/06/05 05:31:35;;;;;;;;;;;;;;;;;;137618;1272;22402;-77
2023/06/05 05:34:37;;;;;;;;;;;;;;;;;;137596;1272;22296;-77
2023/06/05 05:37:38;;;;;;;;;;;;;;;;;;137675;1272;22400;-79
2023/06/05 05:40:39;;;;;;;;;;;;;;;;;;137643;1262;22469;-79
2023/06/05 05:43:40;;;;;;;;;;;;;;;;;;137606;1272;22393;-81
2023/06/05 05:46:41;;;;;;;;;;;;;;;;;;137658;1272;22335;-78
2023/06/05 05:49:43;;;;;;;;;;;;;;;;;;137630;1272;22465;-81
2023/06/05 05:52:44;;;;;;;;;;;;;;;;;;137588;1272;22343;-78
2023/06/05 05:55:45;;;;;;;;;;;;;;;;;;137682;1272;22336;-78
2023/06/05 05:58:47;;;;;;;;;;;;;;;;;;137599;1272;22280;-78
2023/06/05 06:01:48;;;;;;;;;;;;;;;;;;137657;1272;22479;-80
2023/06/05 06:04:50;;;;;;;;;;;;;;;;;;137661;1269;22362;-81
2023/06/05 06:07:51;;;;;;;;;;;;;;;;;;137675;1272;22334;-78
2023/06/05 06:10:52;;;;;;;;;;;;;;;;;;137601;1272;22474;-80
2023/06/05 06:13:53;;;;;;;;;;;;;;;;;;137682;1272;22590;-79
2023/06/05 06:16:55;;;;;;;;;;;;;;;;;;137669;1272;22951;-78
2023/06/05 06:19:57;;;;;;;;;;;;;;;;;;137564;1272;22516;-80
2023/06/05 06:22:58;;;;;;;;;;;;;;;;;;137697;1272;22336;-79
2023/06/05 06:25:59;;;;;;;;;;;;;;;;;;137666;1272;22468;-79
2023/06/05 06:29:00;;;;;;;;;;;;;;;;;;137633;1272;23129;-80
2023/06/05 06:32:02;;;;;;;;;;;;;;;;;;137648;1272;22345;-79
2023/06/05 06:35:03;;;;;;;;;;;;;;;;;;137665;1272;22345;-80
2023/06/05 06:38:04;;;;;;;;;;;;;;;;;;137695;1272;22802;-78
2023/06/05 06:41:06;;;;;;;;;;;;;;;;;;136836;1272;22533;-81
2023/06/05 06:44:07;;;;;;;;;;;;;;;;;;137557;1270;22508;-79
2023/06/05 06:47:08;;;;;;;;;;;;;;;;;;137612;1272;22296;-79
2023/06/05 06:50:09;;;;;;;;;;;;;;;;;;137490;1272;225330;-80
2023/06/05 06:53:10;;;;;;;;;;;;;;;;;;137667;1272;22404;-79
2023/06/05 06:56:11;;;;;;;;;;;;;;;;;;137645;1272;22351;-77
2023/06/05 06:59:12;;;;;;;;;;;;;;;;;;137624;1272;22815;-83
2023/06/05 07:02:13;;;;;;;;;;;;;;;;;;137631;1272;22337;-81
2023/06/05 07:05:15;;;;;;;;;;;;;;;;;;137603;1272;22337;-79
2023/06/05 07:08:16;;;;;;;;;;;;;;;;;;137617;1272;22943;-78
2023/06/05 07:11:17;;;;;;;;;;;;;;;;;;137595;1272;22332;-78
2023/06/05 07:14:18;;;;;;;;;;;;;;;;;;137632;1272;22781;-78
2023/06/05 07:17:19;;;;;;;;;;;;;;;;;;137637;1272;22705;-79
2023/06/05 07:20:20;;;;;;;;;;;;;;;;;;137630;1272;22391;-78
2023/06/05 07:23:22;;;;;;;;;;;;;;;;;;137632;1261;22389;-79
2023/06/05 07:26:24;;;;;;;;;;;;;;;;;;137653;1272;22333;-79
2023/06/05 07:29:25;;;;;;;;;;;;;;;;;;137608;1272;22785;-81
2023/06/05 07:32:26;;;;;;;;;;;;;;;;;;137588;1272;22384;-79
2023/06/05 07:35:27;;;;;;;;;;;;;;;;;;137636;1272;22350;-79
2023/06/05 07:38:29;;;;;;;;;;;;;;;;;;137610;1272;22297;-79
2023/06/05 07:41:30;;;;;;;;;;;;;;;;;;137700;1272;22362;-81
2023/06/05 07:44:31;;;;;;;;;;;;;;;;;;137613;1272;22339;-80
2023/06/05 07:47:32;;;;;;;;;;;;;;;;;;137651;1272;22267;-79
2023/06/05 07:50:33;;;;;;;;;;;;;;;;;;137691;1272;22347;-79
2023/06/05 07:53:35;;;;;;;;;;;;;;;;;;137651;1272;22340;-79
2023/06/05 07:56:36;;;;;;;;;;;;;;;;;;137603;1272;22383;-80
2023/06/05 07:59:37;;;;;;;;;;;;;;;;;;137649;1272;22288;-79
2023/06/05 08:02:38;;;;;;;;;;;;;;;;;;137623;1272;22338;-79
2023/06/05 08:05:42;;;;;;;;;;;;;;;;;;137671;1272;22499;-79
2023/06/05 08:08:43;;;;;;;;;;;;;;;;;;137611;1272;22351;-79
2023/06/05 08:11:45;;;;;;;;;;;;;;;;;;137649;1272;22268;-79
2023/06/05 08:14:46;;;;;;;;;;;;;;;;;;137628;1272;22232;-79
2023/06/05 08:17:47;;;;;;;;;;;;;;;;;;137629;1272;22451;-79
2023/06/05 08:20:48;;;;;;;;;;;;;;;;;;137622;1272;22344;-80
2023/06/05 08:23:49;;;;;;;;;;;;;;;;;;137592;1272;22315;-80
2023/06/05 08:26:53;;;;;;;;;;;;;;;;;;137625;1272;22720;-80
2023/06/05 08:29:54;;;;;;;;;;;;;;;;;;137675;1272;22769;-80
2023/06/05 08:32:55;;;;;;;;;;;;;;;;;;137669;1272;23253;-79
2023/06/05 08:35:56;;;;;;;;;;;;;;;;;;137702;1272;22281;-81
2023/06/05 08:38:57;;;;;;;;;;;;;;;;;;137667;1272;22370;-81
2023/06/05 08:42:00;;;;;;;;;;;;;;;;;;137679;1272;22335;-79
2023/06/05 08:45:01;;;;;;;;;;;;;;;;;;137636;1272;22853;-79
2023/06/05 08:48:03;;;;;;;;;;;;;;;;;;137631;1272;22907;-80
2023/06/05 08:51:04;;;;;;;;;;;;;;;;;;137638;1272;22546;-80
2023/06/05 08:54:06;;;;;;;;;;;;;;;;;;137682;1272;22337;-81
2023/06/05 08:57:08;;;;;;;;;;;;;;;;;;137681;1272;22802;-82
2023/06/05 09:00:10;;;;;;;;;;;;;;;;;;137699;1272;23036;-80
2023/06/05 09:03:12;;;;;;;;;;;;;;;;;;137723;1272;22360;-80
2023/06/05 09:06:14;;;;;;;;;;;;;;;;;;137695;1272;22804;-81
2023/06/05 09:09:15;;;;;;;;;;;;;;;;;;137714;1272;22264;-80
2023/06/05 09:12:17;;;;;;;;;;;;;;;;;;137639;1266;22434;-80
2023/06/05 09:15:18;;;;;;;;;;;;;;;;;;137657;1272;22517;-80
2023/06/05 09:18:19;;;;;;;;;;;;;;;;;;137705;1272;22450;-81
2023/06/05 09:21:20;;;;;;;;;;;;;;;;;;137652;1268;22255;-80
2023/06/05 09:24:22;;;;;;;;;;;;;;;;;;137656;1272;22335;-80
2023/06/05 09:27:23;;;;;;;;;;;;;;;;;;137623;1272;22279;-84
2023/06/05 09:30:25;;;;;;;;;;;;;;;;;;137690;1266;22425;-82
2023/06/05 09:33:26;;;;;;;;;;;;;;;;;;137469;1272;23072;-82
2023/06/05 09:36:27;;;;;;;;;;;;;;;;;;137514;1272;22548;-82
2023/06/05 09:39:28;;;;;;;;;;;;;;;;;;137761;1272;22304;-81
2023/06/05 09:42:29;;;;;;;;;;;;;;;;;;137634;1272;22512;-82
2023/06/05 09:45:30;;;;;;;;;;;;;;;;;;137556;1272;22593;-82
2023/06/05 09:48:32;;;;;;;;;;;;;;;;;;137492;1272;23019;-80
2023/06/05 09:51:33;;;;;;;;;;;;;;;;;;137535;1272;22597;-82
2023/06/05 09:54:36;;;;;;;;;;;;;;;;;;137628;1272;22499;-83
2023/06/05 09:57:37;;;;;;;;;;;;;;;;;;137695;1272;22267;-83
2023/06/05 10:00:44;;;;;;;;;;;;;;;;;;137652;1272;22382;-81
2023/06/05 10:03:45;;;;;;;;;;;;;;;;;;137669;1272;22315;-83
2023/06/05 10:06:46;;;;;;;;;;;;;;;;;;137673;1272;22981;-80
2023/06/05 10:09:48;;;;;;;;;;;;;;;;;;137657;1272;22328;-81
2023/06/05 10:12:56;;;;;;;;;;;;;;;;;;137654;1272;22833;-81
2023/06/05 10:15:57;;;;;;;;;;;;;;;;;;137671;1272;23413;-82
2023/06/05 10:18:58;;;;;;;;;;;;;;;;;;137677;1272;22685;-82
2023/06/05 10:21:59;;;;;;;;;;;;;;;;;;137650;1272;22483;-81
2023/06/05 10:25:01;;;;;;;;;;;;;;;;;;137678;1272;22411;-81
2023/06/05 10:28:02;;;;;;;;;;;;;;;;;;137733;1272;22344;-82
2023/06/05 10:31:04;;;;;;;;;;;;;;;;;;137682;1272;22749;-82
2023/06/05 10:34:05;;;;;;;;;;;;;;;;;;137711;1272;22700;-81
2023/06/05 10:37:07;;;;;;;;;;;;;;;;;;137714;1272;22915;-81
2023/06/05 10:40:09;;;;;;;;;;;;;;;;;;137710;1272;22363;-81
2023/06/05 10:43:12;;;;;;;;;;;;;;;;;;137684;1272;22318;-81
2023/06/05 10:46:13;;;;;;;;;;;;;;;;;;137626;1272;22607;-84
2023/06/05 10:49:15;;;;;;;;;;;;;;;;;;137737;1272;22372;-82
2023/06/05 10:52:16;;;;;;;;;;;;;;;;;;137722;1272;22376;-81
2023/06/05 10:55:17;;;;;;;;;;;;;;;;;;137691;1272;22355;-80
2023/06/05 10:58:22;;;;;;;;;;;;;;;;;;137679;1272;22822;-80
2023/06/05 11:01:23;;;;;;;;;;;;;;;;;;137661;1272;22786;-79
2023/06/05 11:04:24;;;;;;;;;;;;;;;;;;137652;1272;22352;-81
2023/06/05 11:07:26;;;;;;;;;;;;;;;;;;137633;1272;22343;-81
2023/06/05 11:10:27;;;;;;;;;;;;;;;;;;137533;1264;22582;-82
2023/06/05 11:13:28;;;;;;;;;;;;;;;;;;137707;1272;22520;-81
2023/06/05 11:16:29;;;;;;;;;;;;;;;;;;137535;1272;22499;-84
2023/06/05 11:19:30;;;;;;;;;;;;;;;;;;137634;1272;22540;-80
2023/06/05 11:22:32;;;;;;;;;;;;;;;;;;137686;1272;22323;-81
2023/06/05 11:25:33;;;;;;;;;;;;;;;;;;137413;1272;22516;-83
2023/06/05 11:28:37;;;;;;;;;;;;;;;;;;137246;1272;22603;-82
2023/06/05 11:31:45;;;;;;;;;;;;;;;;;;137720;1272;22328;-84
2023/06/05 11:34:50;;;;;;;;;;;;;;;;;;137410;1272;22496;-81
2023/06/05 11:37:51;;;;;;;;;;;;;;;;;;137427;1272;22559;-83
2023/06/05 11:40:55;;;;;;;;;;;;;;;;;;137606;1272;22956;-84
2023/06/05 11:43:57;;;;;;;;;;;;;;;;;;137322;1272;22520;-86
2023/06/05 11:47:01;;;;;;;;;;;;;;;;;;137040;1272;22554;-84
2023/06/05 11:50:02;;;;;;;;;;;;;;;;;;137400;1272;22527;-85
2023/06/05 11:53:04;;;;;;;;;;;;;;;;;;137320;1272;22587;-82
2023/06/05 11:56:06;;;;;;;;;;;;;;;;;;137701;1272;22910;-84
2023/06/05 11:59:10;;;;;;;;;;;;;;;;;;137714;1268;22435;-82
2023/06/05 12:02:12;;;;;;;;;;;;;;;;;;137645;1254;22413;-82
2023/06/05 12:05:13;;;;;;;;;;;;;;;;;;137689;1272;22333;-83
2023/06/05 12:08:14;;;;;;;;;;;;;;;;;;137660;1258;22316;-82
2023/06/05 12:11:16;;;;;;;;;;;;;;;;;;137652;1271;22776;-82
2023/06/05 12:14:17;;;;;;;;;;;;;;;;;;137620;1272;22682;-82
2023/06/05 12:17:22;;;;;;;;;;;;;;;;;;137258;1272;22554;-82
2023/06/05 12:20:26;;;;;;;;;;;;;;;;;;137198;1272;22605;-80
2023/06/05 12:23:28;;;;;;;;;;;;;;;;;;137318;1272;22525;-80
2023/06/05 12:26:29;;;;;;;;;;;;;;;;;;137277;1272;22541;-81
2023/06/05 12:29:30;;;;;;;;;;;;;;;;;;137689;1272;22388;-85
2023/06/05 12:32:32;;;;;;;;;;;;;;;;;;137678;1256;22322;-82
2023/06/05 12:35:34;;;;;;;;;;;;;;;;;;137703;1272;22345;-81
2023/06/05 12:38:35;;;;;;;;;;;;;;;;;;137715;1272;22338;-82
2023/06/05 12:41:37;;;;;;;;;;;;;;;;;;137676;1272;22306;-83
2023/06/05 12:44:39;;;;;;;;;;;;;;;;;;137711;1272;22271;-86
2023/06/05 12:47:40;;;;;;;;;;;;;;;;;;137734;1272;22357;-84
2023/06/05 12:50:42;;;;;;;;;;;;;;;;;;137772;1256;22262;-81
2023/06/05 12:53:46;;;;;;;;;;;;;;;;;;137683;1272;22398;-80
2023/06/05 12:56:49;;;;;;;;;;;;;;;;;;137657;1272;22342;-81
2023/06/05 12:59:50;;;;;;;;;;;;;;;;;;137664;1272;22383;-81
2023/06/05 13:02:51;;;;;;;;;;;;;;;;;;137679;1272;22282;-80
2023/06/05 13:05:53;;;;;;;;;;;;;;;;;;137705;1272;22289;-85
2023/06/05 13:08:54;;;;;;;;;;;;;;;;;;137685;1272;22285;-85
2023/06/05 13:11:59;;;;;;;;;;;;;;;;;;137662;1272;22819;-84
2023/06/05 13:15:00;;;;;;;;;;;;;;;;;;137722;1272;22354;-84
2023/06/05 13:18:01;;;;;;;;;;;;;;;;;;137719;1272;22341;-84
2023/06/05 13:21:02;;;;;;;;;;;;;;;;;;137700;1272;22370;-82
2023/06/05 13:24:04;;;;;;;;;;;;;;;;;;137723;1272;22332;-81
2023/06/05 13:27:05;;;;;;;;;;;;;;;;;;137702;1272;22383;-83
2023/06/05 13:30:06;;;;;;;;;;;;;;;;;;137700;1272;22910;-84
2023/06/05 13:33:07;;;;;;;;;;;;;;;;;;137715;1272;22361;-85
2023/06/05 13:36:08;;;;;;;;;;;;;;;;;;137585;1272;22532;-83
2023/06/05 13:39:10;;;;;;;;;;;;;;;;;;137722;1272;22318;-85
2023/06/05 13:42:14;;;;;;;;;;;;;;;;;;137530;1268;22485;-85
2023/06/05 13:45:16;;;;;;;;;;;;;;;;;;137241;1272;22517;-85
2023/06/05 13:48:20;;;;;;;;;;;;;;;;;;136849;1272;22529;-83
2023/06/05 13:51:21;;;;;;;;;;;;;;;;;;136810;1272;22981;-84
2023/06/05 13:54:24;;;;;;;;;;;;;;;;;;137383;1272;22493;-84
2023/06/05 13:57:27;;;;;;;;;;;;;;;;;;137683;1272;25317;-84
2023/06/05 14:00:30;;;;;;;;;;;;;;;;;;137520;1272;22570;-84
2023/06/05 14:03:31;;;;;;;;;;;;;;;;;;137710;1272;22426;-83
2023/06/05 14:06:37;;;;;;;;;;;;;;;;;;137704;1272;22342;-83
2023/06/05 14:09:38;;;;;;;;;;;;;;;;;;137673;1272;23253;-82
2023/06/05 14:12:39;;;;;;;;;;;;;;;;;;137723;1265;22325;-81
2023/06/05 14:15:40;;;;;;;;;;;;;;;;;;137718;1272;22277;-82
2023/06/05 14:18:41;;;;;;;;;;;;;;;;;;137710;1272;22335;-83
2023/06/05 14:21:42;;;;;;;;;;;;;;;;;;137489;1272;22967;-84
2023/06/05 14:24:44;;;;;;;;;;;;;;;;;;137665;1272;22310;-82
2023/06/05 14:27:45;;;;;;;;;;;;;;;;;;137694;1266;22758;-83
2023/06/05 14:30:46;;;;;;;;;;;;;;;;;;137683;1272;22402;-82
2023/06/05 14:33:47;;;;;;;;;;;;;;;;;;137697;1272;22514;-82
2023/06/05 14:36:51;;;;;;;;;;;;;;;;;;137681;1272;22515;-84
2023/06/05 14:39:52;;;;;;;;;;;;;;;;;;137743;1272;22513;-83
2023/06/05 14:42:53;;;;;;;;;;;;;;;;;;137684;1272;22576;-83
2023/06/05 14:45:54;;;;;;;;;;;;;;;;;;137612;1272;22520;-84
2023/06/05 14:48:55;;;;;;;;;;;;;;;;;;137693;1272;22509;-83
2023/06/05 14:51:56;;;;;;;;;;;;;;;;;;137648;1272;22481;-84
2023/06/05 14:54:58;;;;;;;;;;;;;;;;;;137606;1272;22536;-84
2023/06/05 14:57:59;;;;;;;;;;;;;;;;;;136668;1272;22531;-84
2023/06/05 15:01:01;;;;;;;;;;;;;;;;;;137511;1271;22584;-83
2023/06/05 15:04:02;;;;;;;;;;;;;;;;;;137646;1272;22528;-83
2023/06/05 15:07:03;;;;;;;;;;;;;;;;;;137530;1272;22539;-86
2023/06/05 15:10:05;;;;;;;;;;;;;;;;;;137669;1272;22288;-80
2023/06/05 15:13:06;;;;;;;;;;;;;;;;;;137692;1272;23001;-81
2023/06/05 15:16:07;;;;;;;;;;;;;;;;;;137726;1269;22347;-83
2023/06/05 15:19:08;;;;;;;;;;;;;;;;;;137738;1272;22480;-83
2023/06/05 15:22:09;;;;;;;;;;;;;;;;;;137699;1272;22505;-82
2023/06/05 15:25:10;;;;;;;;;;;;;;;;;;137638;1272;22488;-83
2023/06/05 15:28:11;;;;;;;;;;;;;;;;;;137739;1272;22344;-83
2023/06/05 15:31:13;;;;;;;;;;;;;;;;;;137708;1272;22373;-82
2023/06/05 15:34:14;;;;;;;;;;;;;;;;;;137633;1272;22525;-83
2023/06/05 15:37:15;;;;;;;;;;;;;;;;;;137536;1272;22538;-84
2023/06/05 15:40:16;;;;;;;;;;;;;;;;;;137596;1272;22491;-84
2023/06/05 15:43:17;;;;;;;;;;;;;;;;;;137539;1272;22510;-83
2023/06/05 15:46:19;;;;;;;;;;;;;;;;;;137383;1272;22515;-81
2023/06/05 15:49:20;;;;;;;;;;;;;;;;;;137687;1271;22516;-84
2023/06/05 15:52:21;;;;;;;;;;;;;;;;;;137686;1272;22585;-83
2023/06/05 15:55:22;;;;;;;;;;;;;;;;;;137638;1272;22562;-84
2023/06/05 15:58:26;;;;;;;;;;;;;;;;;;137616;1272;22476;-85
2023/06/05 16:01:27;;;;;;;;;;;;;;;;;;137574;1272;22475;-84
2023/06/05 16:04:28;;;;;;;;;;;;;;;;;;137615;1270;22506;-84
2023/06/05 16:07:29;;;;;;;;;;;;;;;;;;137586;1272;22657;-83
2023/06/05 16:10:30;;;;;;;;;;;;;;;;;;137357;1268;22524;-77
2023/06/05 16:13:31;;;;;;;;;;;;;;;;;;137581;1272;22565;-85
2023/06/05 16:16:32;;;;;;;;;;;;;;;;;;136611;1272;23145;-85
2023/06/05 16:19:33;;;;;;;;;;;;;;;;;;137460;1272;22505;-86
2023/06/05 16:22:36;;;;;;;;;;;;;;;;;;137085;1272;22536;-85
2023/06/05 16:25:38;;;;;;;;;;;;;;;;;;136786;1272;24772;-84
2023/06/05 16:28:51;;;;;;;;;;;;;;;;;;137194;1272;22986;-84
2023/06/05 16:31:56;;;;;;;;;;;;;;;;;;136807;1272;22542;-83
2023/06/05 16:35:02;;;;;;;;;;;;;;;;;;136552;1272;22534;-82
2023/06/05 16:38:06;;;;;;;;;;;;;;;;;;136911;1272;22530;-84
2023/06/05 16:41:09;;;;;;;;;;;;;;;;;;137560;1272;22500;-83
2023/06/05 16:44:19;;;;;;;;;;;;;;;;;;137134;1272;22612;-83
2023/06/05 16:50:47;;;;;;;;;;;;;;;;;;136833;1272;22551;-83
2023/06/05 16:54:22;;;;;;;;;;;;;;;;;;136978;1272;22524;-84
2023/06/05 16:57:35;;;;;;;;;;;;;;;;;;137234;1272;22502;-82
2023/06/05 17:00:43;;;;;;;;;;;;;;;;;;137010;1272;22546;-83
2023/06/05 17:04:05;;;;;;;;;;;;;;;;;;137336;1272;22486;-83
2023/06/05 17:10:32;;;;;;;;;;;;;;;;;;136949;1272;23086;-84
2023/06/05 17:13:38;;;;;;;;;;;;;;;;;;137499;1271;22934;-85
2023/06/05 17:16:41;;;;;;;;;;;;;;;;;;137362;1272;22508;-84
2023/06/05 17:19:43;;;;;;;;;;;;;;;;;;137134;1266;22475;-83
2023/06/05 17:22:44;;;;;;;;;;;;;;;;;;137301;1272;22607;-81
2023/06/05 17:25:45;;;;;;;;;;;;;;;;;;137547;1272;22477;-84
2023/06/05 17:28:47;;;;;;;;;;;;;;;;;;137009;1272;22571;-83
2023/06/05 17:31:51;;;;;;;;;;;;;;;;;;137396;1272;22466;-85
2023/06/05 17:34:55;;;;;;;;;;;;;;;;;;137502;1272;22885;-85
2023/06/05 17:37:56;;;;;;;;;;;;;;;;;;137472;1268;25277;-83
2023/06/05 17:40:58;;;;;;;;;;;;;;;;;;137523;1272;22498;-85
2023/06/05 17:43:59;;;;;;;;;;;;;;;;;;137129;1271;22533;-85
2023/06/05 17:47:02;;;;;;;;;;;;;;;;;;137256;1272;22518;-84
2023/06/05 17:50:04;;;;;;;;;;;;;;;;;;137377;1272;22460;-85
2023/06/05 17:53:05;;;;;;;;;;;;;;;;;;137166;1272;22509;-85
2023/06/05 17:56:06;;;;;;;;;;;;;;;;;;137571;1265;22548;-84
2023/06/05 17:59:09;;;;;;;;;;;;;;;;;;137312;1272;22502;-84
2023/06/05 18:02:10;;;;;;;;;;;;;;;;;;137019;1272;22553;-86
2023/06/05 18:05:12;;;;;;;;;;;;;;;;;;137485;1272;22489;-83
2023/06/05 18:08:14;;;;;;;;;;;;;;;;;;137385;1258;22534;-84
2023/06/05 18:11:15;;;;;;;;;;;;;;;;;;137518;1272;22524;-84
2023/06/05 18:14:17;;;;;;;;;;;;;;;;;;136916;1272;22527;-83
2023/06/05 18:17:18;;;;;;;;;;;;;;;;;;137074;1272;22548;-85
2023/06/05 18:20:23;;;;;;;;;;;;;;;;;;136591;1269;23146;-85
2023/06/05 18:23:24;;;;;;;;;;;;;;;;;;137113;1272;22532;-83
2023/06/05 18:26:25;;;;;;;;;;;;;;;;;;136813;1269;22526;-85
2023/06/05 18:29:27;;;;;;;;;;;;;;;;;;136922;1272;22531;-83
2023/06/05 18:32:28;;;;;;;;;;;;;;;;;;137263;1272;22948;-84
2023/06/05 18:35:29;;;;;;;;;;;;;;;;;;137088;1272;22987;-84
2023/06/05 18:38:30;;;;;;;;;;;;;;;;;;137520;1260;22517;-84
2023/06/05 18:41:32;;;;;;;;;;;;;;;;;;137234;1260;22547;-89
2023/06/05 18:44:33;;;;;;;;;;;;;;;;;;137329;1272;23210;-85
2023/06/05 18:47:34;;;;;;;;;;;;;;;;;;137194;1272;22674;-85
2023/06/05 18:50:35;;;;;;;;;;;;;;;;;;136693;1272;678188;-86
2023/06/05 18:53:37;;;;;;;;;;;;;;;;;;137091;1268;22571;-86
2023/06/05 18:56:38;;;;;;;;;;;;;;;;;;137614;1272;22542;-85
2023/06/05 18:59:50;;;;;;;;;;;;;;;;;;136768;1272;22511;-87
2023/06/05 19:02:52;;;;;;;;;;;;;;;;;;137233;1271;22550;-85
2023/06/05 19:05:53;;;;;;;;;;;;;;;;;;137298;1272;23010;-86
2023/06/05 19:08:55;;;;;;;;;;;;;;;;;;136943;1272;22518;-80
2023/06/05 19:11:56;;;;;;;;;;;;;;;;;;137191;1272;22531;-83
2023/06/05 19:14:57;;;;;;;;;;;;;;;;;;137513;1259;22480;-84
2023/06/05 19:17:58;;;;;;;;;;;;;;;;;;137653;1272;22948;-84
2023/06/05 19:20:59;;;;;;;;;;;;;;;;;;137496;1272;22540;-84
2023/06/05 19:24:01;;;;;;;;;;;;;;;;;;137621;1272;22497;-84
2023/06/05 19:27:02;;;;;;;;;;;;;;;;;;137689;1272;22590;-84
2023/06/05 19:30:04;;;;;;;;;;;;;;;;;;137483;1272;22847;-84
2023/06/05 19:33:05;;;;;;;;;;;;;;;;;;137499;1272;22895;-84
2023/06/05 19:36:06;;;;;;;;;;;;;;;;;;137436;1272;22589;-83
2023/06/05 19:39:07;;;;;;;;;;;;;;;;;;137538;1272;22585;-83
2023/06/05 19:42:08;;;;;;;;;;;;;;;;;;137311;1268;22530;-84
2023/06/05 19:45:10;;;;;;;;;;;;;;;;;;137253;1272;22524;-86
2023/06/05 19:48:11;;;;;;;;;;;;;;;;;;137513;1272;22531;-84
2023/06/05 19:51:12;;;;;;;;;;;;;;;;;;137536;1272;23049;-84
2023/06/05 19:54:13;;;;;;;;;;;;;;;;;;137546;1272;22556;-85
2023/06/05 19:57:14;;;;;;;;;;;;;;;;;;137384;1272;22517;-84
2023/06/05 20:00:15;;;;;;;;;;;;;;;;;;137661;1272;22336;-83
2023/06/05 20:03:17;;;;;;;;;;;;;;;;;;137745;1272;22846;-83
2023/06/05 20:06:18;;;;;;;;;;;;;;;;;;136980;1272;22586;-84
2023/06/05 20:09:19;;;;;;;;;;;;;;;;;;137666;1272;22495;-83
2023/06/05 20:12:20;;;;;;;;;;;;;;;;;;137589;1272;22488;-81
2023/06/05 20:15:21;;;;;;;;;;;;;;;;;;137617;1272;22519;-82
2023/06/05 20:18:22;;;;;;;;;;;;;;;;;;137584;1272;22514;-80
2023/06/05 20:21:24;;;;;;;;;;;;;;;;;;137692;1272;22532;-81
2023/06/05 20:24:25;;;;;;;;;;;;;;;;;;137631;1272;22302;-80
2023/06/05 20:27:26;;;;;;;;;;;;;;;;;;137650;1272;22820;-81